sensor_id;sensor_type;location;lat;lon;timestamp;pressure;altitude;pressure_sealevel;temperature
29423;BMP180;16399;51.686;8.684;2023-02-04T00:02:55;101124.00;;;5.90
29423;BMP180;16399;51.686;8.684;2023-02-04T00:05:57;101131.00;;;5.90
29423;BMP180;16399;51.686;8.684;2023-02-04T00:08:59;101142.00;;;5.90
29423;BMP180;16399;51.686;8.684;2023-02-04T00:12:02;101149.00;;;5.90
29423;BMP180;16399;51.686;8.684;2023-02-04T00:15:04;101147.00;;;6.00
29423;BMP180;16399;51.686;8.684;2023-02-04T00:18:07;101145.00;;;5.90
29423;BMP180;16399;51.686;8.684;2023-02-04T00:21:10;101163.00;;;6.00
29423;BMP180;16399;51.686;8.684;2023-02-04T00:24:12;101157.00;;;6.00
29423;BMP180;16399;51.686;8.684;2023-02-04T00:27:14;101165.00;;;6.00
29423;BMP180;16399;51.686;8.684;2023-02-04T00:30:17;101167.00;;;6.00
29423;BMP180;16399;51.686;8.684;2023-02-04T00:33:19;101177.00;;;6.00
29423;BMP180;16399;51.686;8.684;2023-02-04T00:36:22;101177.00;;;6.00
29423;BMP180;16399;51.686;8.684;2023-02-04T00:39:24;101189.00;;;6.00
29423;BMP180;16399;51.686;8.684;2023-02-04T00:42:26;101202.00;;;6.00
29423;BMP180;16399;51.686;8.684;2023-02-04T00:45:28;101213.00;;;6.00
29423;BMP180;16399;51.686;8.684;2023-02-04T00:48:31;101196.00;;;6.00
29423;BMP180;16399;51.686;8.684;2023-02-04T00:51:35;101199.00;;;6.00
29423;BMP180;16399;51.686;8.684;2023-02-04T00:54:37;101214.00;;;6.00
29423;BMP180;16399;51.686;8.684;2023-02-04T00:57:40;101223.00;;;6.00
29423;BMP180;16399;51.686;8.684;2023-02-04T01:00:42;101216.00;;;6.00
29423;BMP180;16399;51.686;8.684;2023-02-04T01:03:44;101222.00;;;6.00
29423;BMP180;16399;51.686;8.684;2023-02-04T01:06:46;101223.00;;;6.00
29423;BMP180;16399;51.686;8.684;2023-02-04T01:09:49;101229.00;;;6.00
29423;BMP180;16399;51.686;8.684;2023-02-04T01:12:51;101242.00;;;6.00
29423;BMP180;16399;51.686;8.684;2023-02-04T01:15:53;101240.00;;;6.00
29423;BMP180;16399;51.686;8.684;2023-02-04T01:18:56;101247.00;;;6.00
29423;BMP180;16399;51.686;8.684;2023-02-04T01:21:59;101259.00;;;6.00
29423;BMP180;16399;51.686;8.684;2023-02-04T01:25:01;101255.00;;;6.00
29423;BMP180;16399;51.686;8.684;2023-02-04T01:28:03;101245.00;;;5.90
29423;BMP180;16399;51.686;8.684;2023-02-04T01:31:06;101248.00;;;5.90
29423;BMP180;16399;51.686;8.684;2023-02-04T01:34:08;101253.00;;;5.90
29423;BMP180;16399;51.686;8.684;2023-02-04T01:37:10;101252.00;;;5.90
29423;BMP180;16399;51.686;8.684;2023-02-04T01:40:12;101264.00;;;5.90
29423;BMP180;16399;51.686;8.684;2023-02-04T01:43:15;101275.00;;;5.90
29423;BMP180;16399;51.686;8.684;2023-02-04T01:46:18;101279.00;;;5.90
29423;BMP180;16399;51.686;8.684;2023-02-04T01:49:21;101278.00;;;5.90
29423;BMP180;16399;51.686;8.684;2023-02-04T01:52:23;101278.00;;;5.90
29423;BMP180;16399;51.686;8.684;2023-02-04T01:55:28;101274.00;;;5.90
29423;BMP180;16399;51.686;8.684;2023-02-04T01:58:31;101278.00;;;5.90
29423;BMP180;16399;51.686;8.684;2023-02-04T02:01:42;101279.00;;;5.90
29423;BMP180;16399;51.686;8.684;2023-02-04T02:04:45;101280.00;;;5.80
29423;BMP180;16399;51.686;8.684;2023-02-04T02:07:48;101273.00;;;5.80
29423;BMP180;16399;51.686;8.684;2023-02-04T02:10:51;101291.00;;;5.80
29423;BMP180;16399;51.686;8.684;2023-02-04T02:13:53;101292.00;;;5.80
29423;BMP180;16399;51.686;8.684;2023-02-04T02:16:56;101286.00;;;5.70
29423;BMP180;16399;51.686;8.684;2023-02-04T02:19:58;101295.00;;;5.70
29423;BMP180;16399;51.686;8.684;2023-02-04T02:26:39;101302.00;;;5.70
29423;BMP180;16399;51.686;8.684;2023-02-04T02:29:42;101306.00;;;5.70
29423;BMP180;16399;51.686;8.684;2023-02-04T02:32:46;101310.00;;;5.60
29423;BMP180;16399;51.686;8.684;2023-02-04T02:35:49;101319.00;;;5.60
29423;BMP180;16399;51.686;8.684;2023-02-04T02:38:51;101315.00;;;5.60
29423;BMP180;16399;51.686;8.684;2023-02-04T02:41:55;101324.00;;;5.60
29423;BMP180;16399;51.686;8.684;2023-02-04T02:44:57;101322.00;;;5.60
29423;BMP180;16399;51.686;8.684;2023-02-04T02:48:01;101328.00;;;5.60
29423;BMP180;16399;51.686;8.684;2023-02-04T02:51:03;101342.00;;;5.60
29423;BMP180;16399;51.686;8.684;2023-02-04T02:54:07;101343.00;;;5.50
29423;BMP180;16399;51.686;8.684;2023-02-04T02:57:20;101362.00;;;5.50
29423;BMP180;16399;51.686;8.684;2023-02-04T03:00:28;101361.00;;;5.50
29423;BMP180;16399;51.686;8.684;2023-02-04T03:03:33;101345.00;;;5.50
29423;BMP180;16399;51.686;8.684;2023-02-04T03:06:36;101358.00;;;5.50
29423;BMP180;16399;51.686;8.684;2023-02-04T03:09:39;101360.00;;;5.40
29423;BMP180;16399;51.686;8.684;2023-02-04T03:12:42;101362.00;;;5.40
29423;BMP180;16399;51.686;8.684;2023-02-04T03:15:46;101368.00;;;5.30
29423;BMP180;16399;51.686;8.684;2023-02-04T03:18:49;101368.00;;;5.30
29423;BMP180;16399;51.686;8.684;2023-02-04T03:21:52;101370.00;;;5.30
29423;BMP180;16399;51.686;8.684;2023-02-04T03:24:55;101364.00;;;5.20
29423;BMP180;16399;51.686;8.684;2023-02-04T03:27:58;101362.00;;;5.20
29423;BMP180;16399;51.686;8.684;2023-02-04T03:31:01;101374.00;;;5.20
29423;BMP180;16399;51.686;8.684;2023-02-04T03:34:04;101371.00;;;5.20
29423;BMP180;16399;51.686;8.684;2023-02-04T03:37:07;101372.00;;;5.20
29423;BMP180;16399;51.686;8.684;2023-02-04T03:40:10;101373.00;;;5.20
29423;BMP180;16399;51.686;8.684;2023-02-04T03:43:12;101388.00;;;5.20
29423;BMP180;16399;51.686;8.684;2023-02-04T03:46:14;101396.00;;;5.10
29423;BMP180;16399;51.686;8.684;2023-02-04T03:49:17;101396.00;;;5.20
29423;BMP180;16399;51.686;8.684;2023-02-04T03:52:19;101412.00;;;5.30
29423;BMP180;16399;51.686;8.684;2023-02-04T03:55:21;101421.00;;;5.30
29423;BMP180;16399;51.686;8.684;2023-02-04T03:58:24;101417.00;;;5.40
29423;BMP180;16399;51.686;8.684;2023-02-04T04:01:26;101413.00;;;5.40
29423;BMP180;16399;51.686;8.684;2023-02-04T04:04:28;101415.00;;;5.50
29423;BMP180;16399;51.686;8.684;2023-02-04T04:07:30;101418.00;;;5.50
29423;BMP180;16399;51.686;8.684;2023-02-04T04:10:33;101441.00;;;5.50
29423;BMP180;16399;51.686;8.684;2023-02-04T04:13:35;101438.00;;;5.60
29423;BMP180;16399;51.686;8.684;2023-02-04T04:16:37;101437.00;;;5.60
29423;BMP180;16399;51.686;8.684;2023-02-04T04:19:40;101440.00;;;5.60
29423;BMP180;16399;51.686;8.684;2023-02-04T04:22:44;101446.00;;;5.60
29423;BMP180;16399;51.686;8.684;2023-02-04T04:25:46;101463.00;;;5.60
29423;BMP180;16399;51.686;8.684;2023-02-04T04:28:49;101440.00;;;5.60
29423;BMP180;16399;51.686;8.684;2023-02-04T04:31:51;101472.00;;;5.60
29423;BMP180;16399;51.686;8.684;2023-02-04T04:34:53;101482.00;;;5.60
29423;BMP180;16399;51.686;8.684;2023-02-04T04:37:55;101488.00;;;5.60
29423;BMP180;16399;51.686;8.684;2023-02-04T04:40:58;101485.00;;;5.60
29423;BMP180;16399;51.686;8.684;2023-02-04T04:44:00;101490.00;;;5.50
29423;BMP180;16399;51.686;8.684;2023-02-04T04:47:02;101498.00;;;5.50
29423;BMP180;16399;51.686;8.684;2023-02-04T04:50:05;101491.00;;;5.50
29423;BMP180;16399;51.686;8.684;2023-02-04T04:53:07;101494.00;;;5.50
29423;BMP180;16399;51.686;8.684;2023-02-04T04:56:11;101502.00;;;5.50
29423;BMP180;16399;51.686;8.684;2023-02-04T04:59:13;101497.00;;;5.50
29423;BMP180;16399;51.686;8.684;2023-02-04T05:02:16;101503.00;;;5.40
29423;BMP180;16399;51.686;8.684;2023-02-04T05:05:18;101515.00;;;5.40
29423;BMP180;16399;51.686;8.684;2023-02-04T05:08:20;101524.00;;;5.40
29423;BMP180;16399;51.686;8.684;2023-02-04T05:11:23;101519.00;;;5.30
29423;BMP180;16399;51.686;8.684;2023-02-04T05:14:25;101516.00;;;5.30
29423;BMP180;16399;51.686;8.684;2023-02-04T05:17:27;101526.00;;;5.30
29423;BMP180;16399;51.686;8.684;2023-02-04T05:20:30;101521.00;;;5.20
29423;BMP180;16399;51.686;8.684;2023-02-04T05:23:33;101518.00;;;5.20
29423;BMP180;16399;51.686;8.684;2023-02-04T05:26:35;101529.00;;;5.20
29423;BMP180;16399;51.686;8.684;2023-02-04T05:29:37;101531.00;;;5.10
29423;BMP180;16399;51.686;8.684;2023-02-04T05:32:40;101538.00;;;5.10
29423;BMP180;16399;51.686;8.684;2023-02-04T05:35:42;101540.00;;;5.00
29423;BMP180;16399;51.686;8.684;2023-02-04T05:38:45;101544.00;;;5.00
29423;BMP180;16399;51.686;8.684;2023-02-04T05:41:47;101554.00;;;4.90
29423;BMP180;16399;51.686;8.684;2023-02-04T05:44:49;101551.00;;;4.90
29423;BMP180;16399;51.686;8.684;2023-02-04T05:47:52;101554.00;;;4.80
29423;BMP180;16399;51.686;8.684;2023-02-04T05:50:54;101558.00;;;4.80
29423;BMP180;16399;51.686;8.684;2023-02-04T05:53:56;101570.00;;;4.80
29423;BMP180;16399;51.686;8.684;2023-02-04T05:56:58;101573.00;;;4.70
29423;BMP180;16399;51.686;8.684;2023-02-04T06:00:01;101583.00;;;4.70
29423;BMP180;16399;51.686;8.684;2023-02-04T06:03:04;101593.00;;;4.70
29423;BMP180;16399;51.686;8.684;2023-02-04T06:06:06;101586.00;;;4.60
29423;BMP180;16399;51.686;8.684;2023-02-04T06:09:09;101585.00;;;4.60
29423;BMP180;16399;51.686;8.684;2023-02-04T06:12:11;101589.00;;;4.60
29423;BMP180;16399;51.686;8.684;2023-02-04T06:15:14;101602.00;;;4.60
29423;BMP180;16399;51.686;8.684;2023-02-04T06:18:16;101618.00;;;4.60
29423;BMP180;16399;51.686;8.684;2023-02-04T06:21:18;101620.00;;;4.60
29423;BMP180;16399;51.686;8.684;2023-02-04T06:24:21;101605.00;;;4.60
29423;BMP180;16399;51.686;8.684;2023-02-04T06:27:23;101613.00;;;4.60
29423;BMP180;16399;51.686;8.684;2023-02-04T06:30:25;101624.00;;;4.60
29423;BMP180;16399;51.686;8.684;2023-02-04T06:33:28;101627.00;;;4.60
29423;BMP180;16399;51.686;8.684;2023-02-04T06:36:30;101625.00;;;4.60
29423;BMP180;16399;51.686;8.684;2023-02-04T06:39:32;101628.00;;;4.60
29423;BMP180;16399;51.686;8.684;2023-02-04T06:42:34;101631.00;;;4.60
29423;BMP180;16399;51.686;8.684;2023-02-04T06:45:37;101640.00;;;4.50
29423;BMP180;16399;51.686;8.684;2023-02-04T06:48:39;101633.00;;;4.50
29423;BMP180;16399;51.686;8.684;2023-02-04T06:51:41;101640.00;;;4.40
29423;BMP180;16399;51.686;8.684;2023-02-04T06:54:44;101660.00;;;4.40
29423;BMP180;16399;51.686;8.684;2023-02-04T06:57:46;101652.00;;;4.30
29423;BMP180;16399;51.686;8.684;2023-02-04T07:00:48;101664.00;;;4.30
29423;BMP180;16399;51.686;8.684;2023-02-04T07:03:50;101665.00;;;4.30
29423;BMP180;16399;51.686;8.684;2023-02-04T07:06:53;101664.00;;;4.30
29423;BMP180;16399;51.686;8.684;2023-02-04T07:09:55;101666.00;;;4.30
29423;BMP180;16399;51.686;8.684;2023-02-04T07:12:57;101684.00;;;4.40
29423;BMP180;16399;51.686;8.684;2023-02-04T07:16:00;101680.00;;;4.40
29423;BMP180;16399;51.686;8.684;2023-02-04T07:19:02;101678.00;;;4.50
29423;BMP180;16399;51.686;8.684;2023-02-04T07:22:04;101682.00;;;4.50
29423;BMP180;16399;51.686;8.684;2023-02-04T07:25:07;101685.00;;;4.50
29423;BMP180;16399;51.686;8.684;2023-02-04T07:28:10;101686.00;;;4.60
29423;BMP180;16399;51.686;8.684;2023-02-04T07:31:12;101691.00;;;4.60
29423;BMP180;16399;51.686;8.684;2023-02-04T07:34:15;101692.00;;;4.60
29423;BMP180;16399;51.686;8.684;2023-02-04T07:37:17;101692.00;;;4.70
29423;BMP180;16399;51.686;8.684;2023-02-04T07:40:20;101695.00;;;4.70
29423;BMP180;16399;51.686;8.684;2023-02-04T07:43:23;101688.00;;;4.70
29423;BMP180;16399;51.686;8.684;2023-02-04T07:46:25;101695.00;;;4.70
29423;BMP180;16399;51.686;8.684;2023-02-04T07:49:27;101704.00;;;4.70
29423;BMP180;16399;51.686;8.684;2023-02-04T07:52:30;101713.00;;;4.70
29423;BMP180;16399;51.686;8.684;2023-02-04T07:55:33;101709.00;;;4.80
29423;BMP180;16399;51.686;8.684;2023-02-04T07:58:36;101709.00;;;4.80
29423;BMP180;16399;51.686;8.684;2023-02-04T08:01:38;101712.00;;;4.80
29423;BMP180;16399;51.686;8.684;2023-02-04T08:04:40;101714.00;;;4.80
29423;BMP180;16399;51.686;8.684;2023-02-04T08:07:43;101717.00;;;4.70
29423;BMP180;16399;51.686;8.684;2023-02-04T08:10:46;101727.00;;;4.70
29423;BMP180;16399;51.686;8.684;2023-02-04T08:13:48;101726.00;;;4.80
29423;BMP180;16399;51.686;8.684;2023-02-04T08:16:50;101736.00;;;4.90
29423;BMP180;16399;51.686;8.684;2023-02-04T08:19:53;101737.00;;;5.00
29423;BMP180;16399;51.686;8.684;2023-02-04T08:22:55;101718.00;;;5.10
29423;BMP180;16399;51.686;8.684;2023-02-04T08:25:58;101727.00;;;5.20
29423;BMP180;16399;51.686;8.684;2023-02-04T08:29:00;101726.00;;;5.20
29423;BMP180;16399;51.686;8.684;2023-02-04T08:32:03;101729.00;;;5.10
29423;BMP180;16399;51.686;8.684;2023-02-04T08:35:06;101737.00;;;5.10
29423;BMP180;16399;51.686;8.684;2023-02-04T08:38:08;101732.00;;;5.10
29423;BMP180;16399;51.686;8.684;2023-02-04T08:41:11;101731.00;;;5.00
29423;BMP180;16399;51.686;8.684;2023-02-04T08:44:14;101748.00;;;4.90
29423;BMP180;16399;51.686;8.684;2023-02-04T08:47:17;101748.00;;;4.90
29423;BMP180;16399;51.686;8.684;2023-02-04T08:50:19;101761.00;;;4.80
29423;BMP180;16399;51.686;8.684;2023-02-04T08:53:21;101770.00;;;4.80
29423;BMP180;16399;51.686;8.684;2023-02-04T08:56:24;101751.00;;;4.80
29423;BMP180;16399;51.686;8.684;2023-02-04T08:59:26;101775.00;;;4.90
29423;BMP180;16399;51.686;8.684;2023-02-04T09:02:28;101774.00;;;4.90
29423;BMP180;16399;51.686;8.684;2023-02-04T09:05:30;101771.00;;;5.00
29423;BMP180;16399;51.686;8.684;2023-02-04T09:08:33;101781.00;;;5.10
29423;BMP180;16399;51.686;8.684;2023-02-04T09:11:35;101776.00;;;5.20
29423;BMP180;16399;51.686;8.684;2023-02-04T09:14:37;101773.00;;;5.40
29423;BMP180;16399;51.686;8.684;2023-02-04T09:17:40;101776.00;;;5.60
29423;BMP180;16399;51.686;8.684;2023-02-04T09:20:44;101774.00;;;5.80
29423;BMP180;16399;51.686;8.684;2023-02-04T09:23:46;101784.00;;;6.10
29423;BMP180;16399;51.686;8.684;2023-02-04T09:26:49;101778.00;;;6.20
29423;BMP180;16399;51.686;8.684;2023-02-04T09:29:51;101783.00;;;6.40
29423;BMP180;16399;51.686;8.684;2023-02-04T09:32:53;101786.00;;;6.60
29423;BMP180;16399;51.686;8.684;2023-02-04T09:35:55;101793.00;;;6.60
29423;BMP180;16399;51.686;8.684;2023-02-04T09:38:58;101786.00;;;6.70
29423;BMP180;16399;51.686;8.684;2023-02-04T09:42:00;101789.00;;;6.70
29423;BMP180;16399;51.686;8.684;2023-02-04T09:45:03;101778.00;;;6.70
29423;BMP180;16399;51.686;8.684;2023-02-04T09:48:06;101797.00;;;6.70
29423;BMP180;16399;51.686;8.684;2023-02-04T09:51:17;101811.00;;;6.70
29423;BMP180;16399;51.686;8.684;2023-02-04T09:54:18;101810.00;;;6.60
29423;BMP180;16399;51.686;8.684;2023-02-04T09:57:21;101813.00;;;6.60
29423;BMP180;16399;51.686;8.684;2023-02-04T10:00:26;101803.00;;;6.60
29423;BMP180;16399;51.686;8.684;2023-02-04T10:03:28;101808.00;;;6.60
29423;BMP180;16399;51.686;8.684;2023-02-04T10:06:31;101825.00;;;6.50
29423;BMP180;16399;51.686;8.684;2023-02-04T10:09:33;101819.00;;;6.50
29423;BMP180;16399;51.686;8.684;2023-02-04T10:12:35;101827.00;;;6.40
29423;BMP180;16399;51.686;8.684;2023-02-04T10:15:38;101833.00;;;6.30
29423;BMP180;16399;51.686;8.684;2023-02-04T10:18:40;101828.00;;;6.30
29423;BMP180;16399;51.686;8.684;2023-02-04T10:21:44;101826.00;;;6.30
29423;BMP180;16399;51.686;8.684;2023-02-04T10:24:47;101829.00;;;6.30
29423;BMP180;16399;51.686;8.684;2023-02-04T10:27:58;101835.00;;;6.30
29423;BMP180;16399;51.686;8.684;2023-02-04T10:30:57;101832.00;;;6.30
29423;BMP180;16399;51.686;8.684;2023-02-04T10:37:19;101833.00;;;6.30
29423;BMP180;16399;51.686;8.684;2023-02-04T10:40:30;101845.00;;;6.30
29423;BMP180;16399;51.686;8.684;2023-02-04T10:43:32;101852.00;;;6.30
29423;BMP180;16399;51.686;8.684;2023-02-04T10:46:35;101843.00;;;6.30
29423;BMP180;16399;51.686;8.684;2023-02-04T10:49:38;101851.00;;;6.40
29423;BMP180;16399;51.686;8.684;2023-02-04T10:52:46;101855.00;;;6.50
29423;BMP180;16399;51.686;8.684;2023-02-04T10:55:49;101858.00;;;6.50
29423;BMP180;16399;51.686;8.684;2023-02-04T10:58:51;101855.00;;;6.60
29423;BMP180;16399;51.686;8.684;2023-02-04T11:01:58;101855.00;;;6.50
29423;BMP180;16399;51.686;8.684;2023-02-04T11:05:02;101852.00;;;6.50
29423;BMP180;16399;51.686;8.684;2023-02-04T11:08:26;101853.00;;;6.60
29423;BMP180;16399;51.686;8.684;2023-02-04T11:11:29;101840.00;;;6.80
29423;BMP180;16399;51.686;8.684;2023-02-04T11:14:31;101830.00;;;6.70
29423;BMP180;16399;51.686;8.684;2023-02-04T11:17:34;101837.00;;;6.80
29423;BMP180;16399;51.686;8.684;2023-02-04T11:20:57;101848.00;;;7.00
29423;BMP180;16399;51.686;8.684;2023-02-04T11:27:24;101851.00;;;7.30
29423;BMP180;16399;51.686;8.684;2023-02-04T11:30:30;101842.00;;;7.40
29423;BMP180;16399;51.686;8.684;2023-02-04T11:33:39;101844.00;;;7.40
29423;BMP180;16399;51.686;8.684;2023-02-04T11:40:20;101850.00;;;7.30
29423;BMP180;16399;51.686;8.684;2023-02-04T11:43:23;101839.00;;;7.50
29423;BMP180;16399;51.686;8.684;2023-02-04T11:46:28;101857.00;;;7.70
29423;BMP180;16399;51.686;8.684;2023-02-04T11:49:34;101846.00;;;8.00
29423;BMP180;16399;51.686;8.684;2023-02-04T11:52:36;101850.00;;;8.20
29423;BMP180;16399;51.686;8.684;2023-02-04T11:55:45;101853.00;;;8.30
29423;BMP180;16399;51.686;8.684;2023-02-04T11:58:50;101864.00;;;8.30
29423;BMP180;16399;51.686;8.684;2023-02-04T12:05:18;101847.00;;;8.50
29423;BMP180;16399;51.686;8.684;2023-02-04T12:08:26;101844.00;;;8.60
29423;BMP180;16399;51.686;8.684;2023-02-04T12:11:29;101847.00;;;8.60
29423;BMP180;16399;51.686;8.684;2023-02-04T12:14:33;101845.00;;;8.80
29423;BMP180;16399;51.686;8.684;2023-02-04T12:17:36;101862.00;;;8.70
29423;BMP180;16399;51.686;8.684;2023-02-04T12:20:39;101862.00;;;8.70
29423;BMP180;16399;51.686;8.684;2023-02-04T12:23:41;101865.00;;;8.60
29423;BMP180;16399;51.686;8.684;2023-02-04T12:26:43;101856.00;;;8.50
29423;BMP180;16399;51.686;8.684;2023-02-04T12:29:46;101870.00;;;8.50
29423;BMP180;16399;51.686;8.684;2023-02-04T12:32:48;101861.00;;;8.60
29423;BMP180;16399;51.686;8.684;2023-02-04T12:35:51;101870.00;;;8.60
29423;BMP180;16399;51.686;8.684;2023-02-04T12:38:53;101877.00;;;8.60
29423;BMP180;16399;51.686;8.684;2023-02-04T12:41:56;101874.00;;;8.60
29423;BMP180;16399;51.686;8.684;2023-02-04T12:44:58;101881.00;;;8.60
29423;BMP180;16399;51.686;8.684;2023-02-04T12:48:00;101876.00;;;8.40
29423;BMP180;16399;51.686;8.684;2023-02-04T12:51:03;101878.00;;;8.40
29423;BMP180;16399;51.686;8.684;2023-02-04T12:54:05;101885.00;;;8.30
29423;BMP180;16399;51.686;8.684;2023-02-04T12:57:07;101884.00;;;8.30
29423;BMP180;16399;51.686;8.684;2023-02-04T13:00:12;101878.00;;;8.20
29423;BMP180;16399;51.686;8.684;2023-02-04T13:03:15;101878.00;;;8.10
29423;BMP180;16399;51.686;8.684;2023-02-04T13:06:17;101880.00;;;8.10
29423;BMP180;16399;51.686;8.684;2023-02-04T13:09:19;101870.00;;;8.10
29423;BMP180;16399;51.686;8.684;2023-02-04T13:12:21;101885.00;;;8.10
29423;BMP180;16399;51.686;8.684;2023-02-04T13:15:24;101880.00;;;7.90
29423;BMP180;16399;51.686;8.684;2023-02-04T13:18:26;101876.00;;;7.80
29423;BMP180;16399;51.686;8.684;2023-02-04T13:21:28;101889.00;;;7.80
29423;BMP180;16399;51.686;8.684;2023-02-04T13:24:31;101888.00;;;7.70
29423;BMP180;16399;51.686;8.684;2023-02-04T13:27:33;101892.00;;;7.60
29423;BMP180;16399;51.686;8.684;2023-02-04T13:30:36;101891.00;;;7.60
29423;BMP180;16399;51.686;8.684;2023-02-04T13:33:38;101903.00;;;7.70
29423;BMP180;16399;51.686;8.684;2023-02-04T13:36:40;101893.00;;;7.70
29423;BMP180;16399;51.686;8.684;2023-02-04T13:39:43;101895.00;;;7.70
29423;BMP180;16399;51.686;8.684;2023-02-04T13:42:46;101885.00;;;7.90
29423;BMP180;16399;51.686;8.684;2023-02-04T13:45:48;101892.00;;;8.00
29423;BMP180;16399;51.686;8.684;2023-02-04T13:48:51;101889.00;;;8.10
29423;BMP180;16399;51.686;8.684;2023-02-04T13:51:53;101881.00;;;8.10
29423;BMP180;16399;51.686;8.684;2023-02-04T13:54:55;101889.00;;;8.10
29423;BMP180;16399;51.686;8.684;2023-02-04T13:57:57;101885.00;;;8.10
29423;BMP180;16399;51.686;8.684;2023-02-04T14:01:00;101880.00;;;8.10
29423;BMP180;16399;51.686;8.684;2023-02-04T14:04:02;101891.00;;;8.00
29423;BMP180;16399;51.686;8.684;2023-02-04T14:07:05;101894.00;;;7.80
29423;BMP180;16399;51.686;8.684;2023-02-04T14:10:07;101897.00;;;7.70
29423;BMP180;16399;51.686;8.684;2023-02-04T14:13:09;101889.00;;;7.60
29423;BMP180;16399;51.686;8.684;2023-02-04T14:16:12;101906.00;;;7.50
29423;BMP180;16399;51.686;8.684;2023-02-04T14:19:14;101902.00;;;7.50
29423;BMP180;16399;51.686;8.684;2023-02-04T14:22:17;101905.00;;;7.40
29423;BMP180;16399;51.686;8.684;2023-02-04T14:25:19;101908.00;;;7.30
29423;BMP180;16399;51.686;8.684;2023-02-04T14:28:21;101909.00;;;7.30
29423;BMP180;16399;51.686;8.684;2023-02-04T14:31:24;101906.00;;;7.30
29423;BMP180;16399;51.686;8.684;2023-02-04T14:34:26;101902.00;;;7.30
29423;BMP180;16399;51.686;8.684;2023-02-04T14:37:28;101902.00;;;7.40
29423;BMP180;16399;51.686;8.684;2023-02-04T14:40:30;101898.00;;;7.50
29423;BMP180;16399;51.686;8.684;2023-02-04T14:43:33;101897.00;;;7.60
29423;BMP180;16399;51.686;8.684;2023-02-04T14:46:37;101892.00;;;7.60
29423;BMP180;16399;51.686;8.684;2023-02-04T14:49:41;101903.00;;;7.70
29423;BMP180;16399;51.686;8.684;2023-02-04T14:52:43;101895.00;;;7.70
29423;BMP180;16399;51.686;8.684;2023-02-04T14:55:46;101890.00;;;7.70
29423;BMP180;16399;51.686;8.684;2023-02-04T14:58:48;101895.00;;;7.60
29423;BMP180;16399;51.686;8.684;2023-02-04T15:01:50;101896.00;;;7.60
29423;BMP180;16399;51.686;8.684;2023-02-04T15:04:52;101892.00;;;7.50
29423;BMP180;16399;51.686;8.684;2023-02-04T15:07:55;101904.00;;;7.40
29423;BMP180;16399;51.686;8.684;2023-02-04T15:10:57;101906.00;;;7.30
29423;BMP180;16399;51.686;8.684;2023-02-04T15:13:59;101898.00;;;7.20
29423;BMP180;16399;51.686;8.684;2023-02-04T15:17:02;101898.00;;;7.20
29423;BMP180;16399;51.686;8.684;2023-02-04T15:20:04;101902.00;;;7.10
29423;BMP180;16399;51.686;8.684;2023-02-04T15:23:08;101896.00;;;7.00
29423;BMP180;16399;51.686;8.684;2023-02-04T15:26:13;101910.00;;;6.90
29423;BMP180;16399;51.686;8.684;2023-02-04T15:29:16;101922.00;;;6.90
29423;BMP180;16399;51.686;8.684;2023-02-04T15:32:18;101916.00;;;6.90
29423;BMP180;16399;51.686;8.684;2023-02-04T15:35:21;101909.00;;;6.90
29423;BMP180;16399;51.686;8.684;2023-02-04T15:38:23;101906.00;;;6.90
29423;BMP180;16399;51.686;8.684;2023-02-04T15:41:26;101915.00;;;6.90
29423;BMP180;16399;51.686;8.684;2023-02-04T15:44:28;101917.00;;;6.80
29423;BMP180;16399;51.686;8.684;2023-02-04T15:47:32;101913.00;;;6.80
29423;BMP180;16399;51.686;8.684;2023-02-04T15:50:35;101918.00;;;6.70
29423;BMP180;16399;51.686;8.684;2023-02-04T15:53:37;101927.00;;;6.60
29423;BMP180;16399;51.686;8.684;2023-02-04T15:56:40;101923.00;;;6.60
29423;BMP180;16399;51.686;8.684;2023-02-04T15:59:42;101931.00;;;6.50
29423;BMP180;16399;51.686;8.684;2023-02-04T16:02:45;101930.00;;;6.40
29423;BMP180;16399;51.686;8.684;2023-02-04T16:05:47;101935.00;;;6.40
29423;BMP180;16399;51.686;8.684;2023-02-04T16:08:49;101923.00;;;6.20
29423;BMP180;16399;51.686;8.684;2023-02-04T16:11:52;101943.00;;;6.30
29423;BMP180;16399;51.686;8.684;2023-02-04T16:14:54;101936.00;;;6.20
29423;BMP180;16399;51.686;8.684;2023-02-04T16:17:56;101942.00;;;6.10
29423;BMP180;16399;51.686;8.684;2023-02-04T16:20:59;101954.00;;;6.00
29423;BMP180;16399;51.686;8.684;2023-02-04T16:24:01;101948.00;;;5.90
29423;BMP180;16399;51.686;8.684;2023-02-04T16:27:03;101953.00;;;5.80
29423;BMP180;16399;51.686;8.684;2023-02-04T16:30:06;101959.00;;;5.70
29423;BMP180;16399;51.686;8.684;2023-02-04T16:33:09;101959.00;;;5.60
29423;BMP180;16399;51.686;8.684;2023-02-04T16:36:11;101958.00;;;5.50
29423;BMP180;16399;51.686;8.684;2023-02-04T16:39:14;101968.00;;;5.40
29423;BMP180;16399;51.686;8.684;2023-02-04T16:42:16;101977.00;;;5.30
29423;BMP180;16399;51.686;8.684;2023-02-04T16:45:18;101957.00;;;5.20
29423;BMP180;16399;51.686;8.684;2023-02-04T16:48:21;101960.00;;;5.10
29423;BMP180;16399;51.686;8.684;2023-02-04T16:51:23;101962.00;;;5.00
29423;BMP180;16399;51.686;8.684;2023-02-04T16:54:26;101957.00;;;4.90
29423;BMP180;16399;51.686;8.684;2023-02-04T16:57:28;101952.00;;;4.80
29423;BMP180;16399;51.686;8.684;2023-02-04T17:00:31;101958.00;;;4.70
29423;BMP180;16399;51.686;8.684;2023-02-04T17:03:34;101966.00;;;4.60
29423;BMP180;16399;51.686;8.684;2023-02-04T17:06:36;101980.00;;;4.60
29423;BMP180;16399;51.686;8.684;2023-02-04T17:09:39;101979.00;;;4.50
29423;BMP180;16399;51.686;8.684;2023-02-04T17:12:42;101987.00;;;4.50
29423;BMP180;16399;51.686;8.684;2023-02-04T17:15:44;101988.00;;;4.50
29423;BMP180;16399;51.686;8.684;2023-02-04T17:18:47;101991.00;;;4.40
29423;BMP180;16399;51.686;8.684;2023-02-04T17:21:49;101996.00;;;4.40
29423;BMP180;16399;51.686;8.684;2023-02-04T17:24:51;102003.00;;;4.40
29423;BMP180;16399;51.686;8.684;2023-02-04T17:27:54;101996.00;;;4.30
29423;BMP180;16399;51.686;8.684;2023-02-04T17:30:57;101994.00;;;4.30
29423;BMP180;16399;51.686;8.684;2023-02-04T17:33:59;102002.00;;;4.30
29423;BMP180;16399;51.686;8.684;2023-02-04T17:37:01;101998.00;;;4.20
29423;BMP180;16399;51.686;8.684;2023-02-04T17:40:04;101990.00;;;4.20
29423;BMP180;16399;51.686;8.684;2023-02-04T17:43:07;101998.00;;;4.20
29423;BMP180;16399;51.686;8.684;2023-02-04T17:46:09;101992.00;;;4.10
29423;BMP180;16399;51.686;8.684;2023-02-04T17:49:12;102010.00;;;4.10
29423;BMP180;16399;51.686;8.684;2023-02-04T17:52:14;102000.00;;;4.20